Terminal Aerodrome Forecast
Issued by NWS

Home | Current Version | Previous Version | Text Only | Print | Product List | Glossary On
Versions: 1 2 3 4 5 6 7 8 9 10 11 12 13 14 15 16 17 18 19 20 21 22 23 24 25 26 27
000
FTUS41 KBTV 221700
TAFPBG
TAF
KPBG 221722Z 2218/2318 15008KT P6SM SCT028 OVC035
      TEMPO 2218/2220 BKN028
     FM222200 14008KT P6SM BKN045
     FM231300 01004KT P6SM SCT050=

USA.gov is the U.S. government's official web portal to all federal, state and local government web resources and services.